createdAt,value
2018-05-15T00:00:51.994Z,4.80
2018-05-15T00:03:21.673Z,5.17
2018-05-15T00:05:52.119Z,6.03
2018-05-15T00:08:21.826Z,6.07
2018-05-15T00:10:51.535Z,6.00
2018-05-15T00:13:21.256Z,7.30
2018-05-15T00:15:50.986Z,6.73
2018-05-15T00:18:20.673Z,7.10
2018-05-15T00:20:50.373Z,8.30
2018-05-15T00:23:20.090Z,8.00
2018-05-15T00:25:51.007Z,7.83
2018-05-15T00:28:21.497Z,8.40
2018-05-15T00:30:51.536Z,7.80
2018-05-15T00:33:22.027Z,7.57
2018-05-15T00:35:51.712Z,7.83
2018-05-15T00:38:21.404Z,7.23
2018-05-15T00:40:51.836Z,7.60
2018-05-15T00:43:22.778Z,8.13
2018-05-15T00:45:52.504Z,10.47
2018-05-15T00:48:22.308Z,10.57
2018-05-15T00:50:52.001Z,10.43
2018-05-15T00:53:21.692Z,11.37
2018-05-15T00:55:52.242Z,11.73
2018-05-15T00:58:21.970Z,11.13
2018-05-15T01:00:52.337Z,10.90
2018-05-15T01:03:22.124Z,11.33
2018-05-15T01:05:51.842Z,12.10
2018-05-15T01:08:21.591Z,12.10
2018-05-15T01:10:52.056Z,11.33
2018-05-15T01:13:22.372Z,13.23
2018-05-15T01:15:52.923Z,13.17
2018-05-15T01:18:22.904Z,11.57
2018-05-15T01:20:52.692Z,12.17
2018-05-15T01:23:23.158Z,12.07
2018-05-15T01:25:53.054Z,11.87
2018-05-15T01:28:22.808Z,11.93
2018-05-15T01:30:53.172Z,12.20
2018-05-15T01:33:23.715Z,11.63
2018-05-15T01:35:54.460Z,11.87
2018-05-15T01:38:24.193Z,12.00
2018-05-15T01:40:53.902Z,11.90
2018-05-15T01:43:23.685Z,11.70
2018-05-15T01:45:53.433Z,12.13
2018-05-15T01:48:23.155Z,11.80
2018-05-15T01:50:52.865Z,11.83
2018-05-15T01:53:22.613Z,11.83
2018-05-15T01:55:53.490Z,11.63
2018-05-15T01:58:24.592Z,11.43
2018-05-15T02:00:56.144Z,10.97
2018-05-15T02:03:26.491Z,11.07
2018-05-15T02:05:57.657Z,11.93
2018-05-15T02:08:28.022Z,12.73
2018-05-15T02:10:58.354Z,12.03
2018-05-15T02:13:28.701Z,12.40
2018-05-15T02:15:59.775Z,11.43
2018-05-15T02:18:31.350Z,12.23
2018-05-15T02:21:01.769Z,11.90
2018-05-15T02:23:32.154Z,12.40
2018-05-15T02:26:02.566Z,11.97
2018-05-15T02:28:34.863Z,12.77
2018-05-15T02:31:05.236Z,13.67
2018-05-15T02:33:35.641Z,13.30
2018-05-15T02:36:06.701Z,14.50
2018-05-15T02:38:37.944Z,14.60
2018-05-15T02:41:08.289Z,15.77
2018-05-15T02:43:39.484Z,14.50
2018-05-15T02:46:11.015Z,16.43
2018-05-15T02:48:41.791Z,15.60
2018-05-15T02:51:13.629Z,16.17
2018-05-15T02:53:44.603Z,17.67
2018-05-15T02:56:15.020Z,15.97
2018-05-15T02:58:45.423Z,14.87
2018-05-15T03:01:15.778Z,16.53
2018-05-15T03:03:46.126Z,16.20
2018-05-15T03:06:16.825Z,15.27
2018-05-15T03:08:47.140Z,16.37
2018-05-15T03:11:17.197Z,16.30
2018-05-15T03:13:46.938Z,16.37
2018-05-15T03:16:16.654Z,16.00
2018-05-15T03:18:46.748Z,16.77
2018-05-15T03:21:20.239Z,15.30
2018-05-15T03:23:51.276Z,16.20
2018-05-15T03:26:21.742Z,16.37
2018-05-15T03:28:51.458Z,15.93
2018-05-15T03:31:21.358Z,15.50
2018-05-15T03:33:51.084Z,15.20
2018-05-15T03:36:21.159Z,14.50
2018-05-15T03:38:51.648Z,12.90
2018-05-15T03:41:21.941Z,14.60
2018-05-15T03:43:52.493Z,14.70
2018-05-15T03:46:22.225Z,14.60
2018-05-15T03:48:51.968Z,13.80
2018-05-15T03:51:22.497Z,14.20
2018-05-15T03:53:52.636Z,13.67
2018-05-15T03:56:22.324Z,13.67
2018-05-15T03:58:52.786Z,13.50
2018-05-15T04:01:33.529Z,13.03
2018-05-15T04:04:14.294Z,11.43
2018-05-15T04:06:58.065Z,12.40
2018-05-15T04:09:27.870Z,13.03
2018-05-15T04:11:58.893Z,12.93
2018-05-15T04:14:28.634Z,12.70
2018-05-15T04:16:58.313Z,12.33
2018-05-15T04:19:28.497Z,11.93
2018-05-15T04:22:00.212Z,12.67
2018-05-15T04:24:31.336Z,11.97
2018-05-15T04:27:01.047Z,12.33
2018-05-15T04:29:33.444Z,11.87
2018-05-15T04:32:03.833Z,12.60
2018-05-15T04:34:33.558Z,10.37
2018-05-15T04:37:03.383Z,11.70
2018-05-15T04:39:33.120Z,11.60
2018-05-15T04:42:02.885Z,11.50
2018-05-15T04:44:32.593Z,11.17
2018-05-15T04:47:02.323Z,11.97
2018-05-15T04:49:32.163Z,11.30
2018-05-15T04:52:01.915Z,11.80
2018-05-15T04:54:31.927Z,10.67
2018-05-15T04:57:02.467Z,11.30
2018-05-15T04:59:32.325Z,10.67
2018-05-15T05:02:02.099Z,11.53
2018-05-15T05:04:31.819Z,12.07
2018-05-15T05:07:02.004Z,10.53
2018-05-15T05:09:33.729Z,11.23
2018-05-15T05:12:04.467Z,11.07
2018-05-15T05:14:34.209Z,10.80
2018-05-15T05:17:04.683Z,11.23
2018-05-15T05:19:34.389Z,10.13
2018-05-15T05:22:04.091Z,10.23
2018-05-15T05:24:34.189Z,10.40
2018-05-15T05:27:03.968Z,10.93
2018-05-15T05:29:34.813Z,11.10
2018-05-15T05:32:05.319Z,9.90
2018-05-15T05:34:35.044Z,11.20
2018-05-15T05:37:04.875Z,10.17
2018-05-15T05:39:34.608Z,10.60
2018-05-15T05:42:04.879Z,11.27
2018-05-15T05:44:34.580Z,11.20
2018-05-15T05:47:04.316Z,11.23
2018-05-15T05:49:34.793Z,11.60
2018-05-15T05:52:04.618Z,10.20
2018-05-15T05:54:34.878Z,11.27
2018-05-15T05:57:05.348Z,11.30
2018-05-15T05:59:35.348Z,11.53
2018-05-15T06:02:05.040Z,10.40
2018-05-15T06:04:35.876Z,10.30
2018-05-15T06:07:06.998Z,10.37
2018-05-15T06:09:37.483Z,11.20
2018-05-15T06:12:07.582Z,11.47
2018-05-15T06:14:37.284Z,11.07
2018-05-15T06:17:08.011Z,10.87
2018-05-15T06:19:38.487Z,10.70
2018-05-15T06:22:08.227Z,11.33
2018-05-15T06:24:37.957Z,11.27
2018-05-15T06:27:08.483Z,11.80
2018-05-15T06:29:38.952Z,11.07
2018-05-15T06:32:08.648Z,12.03
2018-05-15T06:34:38.329Z,11.47
2018-05-15T06:37:08.838Z,10.67
2018-05-15T06:39:38.568Z,12.20
2018-05-15T06:42:09.738Z,10.97
2018-05-15T06:44:39.513Z,11.30
2018-05-15T06:47:09.998Z,12.13
2018-05-15T06:49:39.688Z,10.43
2018-05-15T06:52:09.414Z,11.63
2018-05-15T06:54:39.148Z,12.13
2018-05-15T06:57:08.828Z,12.23
2018-05-15T07:02:12.973Z,10.60
2018-05-15T07:04:43.037Z,11.17
2018-05-15T07:07:13.507Z,10.90
2018-05-15T07:09:43.221Z,11.60
2018-05-15T07:12:12.935Z,12.43
2018-05-15T07:14:42.670Z,10.60
2018-05-15T07:17:13.025Z,11.93
2018-05-15T07:19:43.499Z,11.77
2018-05-15T07:22:13.215Z,11.90
2018-05-15T07:24:42.898Z,10.70
2018-05-15T07:27:12.593Z,10.70
2018-05-15T07:29:42.392Z,11.70
2018-05-15T07:32:12.865Z,11.80
2018-05-15T07:34:42.943Z,10.97
2018-05-15T07:37:13.409Z,13.00
2018-05-15T07:39:43.092Z,11.30
2018-05-15T07:42:12.816Z,11.40
2018-05-15T07:44:42.565Z,12.13
2018-05-15T07:47:12.232Z,11.50
2018-05-15T07:49:42.080Z,12.97
2018-05-15T07:52:12.230Z,12.67
2018-05-15T07:54:42.711Z,13.30
2018-05-15T07:57:12.402Z,12.13
2018-05-15T08:02:15.994Z,11.70
2018-05-15T08:04:47.865Z,11.43
2018-05-15T08:07:17.584Z,12.80
2018-05-15T08:09:47.456Z,11.70
2018-05-15T08:12:17.194Z,12.90
2018-05-15T08:14:46.923Z,11.50
2018-05-15T08:17:17.945Z,11.97
2018-05-15T08:19:47.644Z,13.10
2018-05-15T08:22:18.385Z,12.73
2018-05-15T08:24:48.119Z,11.53
2018-05-15T08:27:17.820Z,12.07
2018-05-15T08:29:48.118Z,11.37
2018-05-15T08:32:18.579Z,13.00
2018-05-15T08:34:49.460Z,11.23
2018-05-15T08:37:19.216Z,12.93
2018-05-15T08:39:49.327Z,11.73
2018-05-15T08:42:19.054Z,12.73
2018-05-15T08:44:49.799Z,12.10
2018-05-15T08:47:19.513Z,11.63
2018-05-15T08:49:49.239Z,12.50
2018-05-15T08:52:19.477Z,12.63
2018-05-15T08:54:50.131Z,12.33
2018-05-15T08:57:20.611Z,11.43
2018-05-15T08:59:50.330Z,11.73
2018-05-15T09:02:20.020Z,12.30
2018-05-15T09:04:50.085Z,12.37
2018-05-15T09:07:20.584Z,11.33
2018-05-15T09:09:50.946Z,11.10
2018-05-15T09:12:21.427Z,11.80
2018-05-15T09:14:51.136Z,11.23
2018-05-15T09:17:20.838Z,11.80
2018-05-15T09:19:50.571Z,11.83
2018-05-15T09:22:20.506Z,12.77
2018-05-15T09:24:50.194Z,11.37
2018-05-15T09:27:20.246Z,12.03
2018-05-15T09:29:50.757Z,11.40
2018-05-15T09:32:21.648Z,10.93
2018-05-15T09:34:51.359Z,11.57
2018-05-15T09:37:21.052Z,12.17
2018-05-15T09:39:50.806Z,11.50
2018-05-15T09:42:20.508Z,12.30
2018-05-15T09:44:50.215Z,11.40
2018-05-15T09:47:19.969Z,12.20
2018-05-15T09:49:50.498Z,11.50
2018-05-15T09:52:21.104Z,12.67
2018-05-15T09:54:50.889Z,12.03
2018-05-15T09:57:20.845Z,12.53
2018-05-15T09:59:50.666Z,13.27
2018-05-15T10:02:21.199Z,13.43
2018-05-15T10:04:51.700Z,12.70
2018-05-15T10:07:21.454Z,13.87
2018-05-15T10:09:52.685Z,11.80
2018-05-15T10:12:23.184Z,13.37
2018-05-15T10:14:52.899Z,14.37
2018-05-15T10:17:23.138Z,13.00
2018-05-15T10:19:53.664Z,14.37
2018-05-15T10:22:24.135Z,12.70
2018-05-15T10:24:53.865Z,12.77
2018-05-15T10:27:25.224Z,13.47
2018-05-15T10:29:55.000Z,13.10
2018-05-15T10:32:24.779Z,13.30
2018-05-15T10:34:55.258Z,13.60
2018-05-15T10:37:25.118Z,13.40
2018-05-15T10:39:56.047Z,14.10
2018-05-15T10:42:25.779Z,13.20
2018-05-15T10:44:56.514Z,13.93
2018-05-15T10:47:27.007Z,14.20
2018-05-15T10:49:56.720Z,13.47
2018-05-15T10:52:27.365Z,14.90
2018-05-15T10:54:57.966Z,14.70
2018-05-15T10:57:28.425Z,14.83
2018-05-15T10:59:58.205Z,13.80
2018-05-15T11:02:27.950Z,14.60
2018-05-15T11:04:58.439Z,14.10
2018-05-15T11:07:28.183Z,15.07
2018-05-15T11:09:58.663Z,14.27
2018-05-15T11:12:28.373Z,14.43
2018-05-15T11:14:58.546Z,14.80
2018-05-15T11:17:29.014Z,15.73
2018-05-15T11:23:17.755Z,17.17
2018-05-15T11:25:50.054Z,15.07
2018-05-15T11:28:20.354Z,14.93
2018-05-15T11:30:50.833Z,15.20
2018-05-15T11:33:20.567Z,16.23
2018-05-15T11:35:50.273Z,15.80
2018-05-15T11:38:20.511Z,16.37
2018-05-15T11:40:51.970Z,16.70
2018-05-15T11:43:21.743Z,16.27
2018-05-15T11:45:52.224Z,15.13
2018-05-15T11:48:22.043Z,16.70
2018-05-15T11:50:53.383Z,15.60
2018-05-15T11:53:23.223Z,17.30
2018-05-15T11:55:53.425Z,17.03
2018-05-15T11:58:23.160Z,16.77
2018-05-15T12:00:52.992Z,17.27
2018-05-15T12:03:22.730Z,16.97
2018-05-15T12:05:53.204Z,16.57
2018-05-15T12:08:23.690Z,18.20
2018-05-15T12:10:53.454Z,18.40
2018-05-15T12:13:23.627Z,16.57
2018-05-15T12:15:54.128Z,17.50
2018-05-15T12:18:23.904Z,18.00
2018-05-15T12:20:53.647Z,16.50
2018-05-15T12:23:23.410Z,15.80
2018-05-15T12:25:53.927Z,16.77
2018-05-15T12:28:23.630Z,15.97
2018-05-15T12:30:53.332Z,17.10
2018-05-15T12:33:23.898Z,15.37
2018-05-15T12:35:53.605Z,16.27
2018-05-15T12:38:23.420Z,15.13
2018-05-15T12:40:53.173Z,16.00
2018-05-15T12:43:23.323Z,17.07
2018-05-15T12:45:53.041Z,15.30
2018-05-15T12:48:22.836Z,16.07
2018-05-15T12:50:53.332Z,16.67
2018-05-15T12:53:23.047Z,17.20
2018-05-15T12:55:53.096Z,16.07
2018-05-15T12:58:23.580Z,16.90
2018-05-15T13:00:53.821Z,17.23
2018-05-15T13:03:23.538Z,15.37
2018-05-15T13:05:54.004Z,16.63
2018-05-15T13:08:23.693Z,16.27
2018-05-15T13:10:54.147Z,16.70
2018-05-15T13:13:23.871Z,16.50
2018-05-15T13:15:53.583Z,17.40
2018-05-15T13:18:23.347Z,17.77
2018-05-15T13:20:53.074Z,17.87
2018-05-15T13:23:22.766Z,18.50
2018-05-15T13:25:58.463Z,18.33
2018-05-15T13:28:28.159Z,20.20
2018-05-15T13:30:58.360Z,20.50
2018-05-15T13:33:28.082Z,21.23
2018-05-15T13:35:57.822Z,19.50
2018-05-15T13:38:27.586Z,20.60
2018-05-15T13:40:57.371Z,21.37
2018-05-15T13:43:28.411Z,20.77
2018-05-15T13:45:58.141Z,19.67
2018-05-15T13:48:29.630Z,18.13
2018-05-15T13:50:59.321Z,17.47
2018-05-15T13:53:29.269Z,19.40
2018-05-15T13:55:58.985Z,18.00
2018-05-15T13:58:28.726Z,17.60
2018-05-15T14:01:00.540Z,16.77
2018-05-15T14:03:30.275Z,16.90
2018-05-15T14:06:00.417Z,18.23
2018-05-15T14:08:30.900Z,18.23
2018-05-15T14:11:00.607Z,18.07
2018-05-15T14:13:30.338Z,19.50
2018-05-15T14:16:00.103Z,17.90
2018-05-15T14:18:30.331Z,18.23
2018-05-15T14:21:00.042Z,18.17
2018-05-15T14:23:29.766Z,18.07
2018-05-15T14:26:00.010Z,17.70
2018-05-15T14:28:29.732Z,19.07
2018-05-15T14:30:59.433Z,19.43
2018-05-15T14:33:29.171Z,20.70
2018-05-15T14:36:00.030Z,20.90
2018-05-15T14:38:29.752Z,21.73
2018-05-15T14:40:59.452Z,20.47
2018-05-15T14:43:29.408Z,23.00
2018-05-15T14:45:59.362Z,22.63
2018-05-15T14:48:30.396Z,22.40
2018-05-15T14:51:30.097Z,23.93
2018-05-15T14:54:00.247Z,22.37
2018-05-15T14:56:29.969Z,22.20
2018-05-15T14:59:00.426Z,20.83
2018-05-15T15:01:30.501Z,22.30
2018-05-15T15:04:00.239Z,21.10
2018-05-15T15:06:30.620Z,21.90
2018-05-15T15:09:01.158Z,21.70
2018-05-15T15:11:31.648Z,20.07
2018-05-15T15:14:01.414Z,21.00
2018-05-15T15:16:31.151Z,21.20
2018-05-15T15:19:01.628Z,20.67
2018-05-15T15:21:32.115Z,20.90
2018-05-15T15:24:01.820Z,21.67
2018-05-15T15:26:31.510Z,19.77
2018-05-15T15:29:01.207Z,21.60
2018-05-15T15:31:31.029Z,19.30
2018-05-15T15:34:00.761Z,19.37
2018-05-15T15:39:04.590Z,15.80
2018-05-15T15:41:34.307Z,13.93
2018-05-15T15:44:04.025Z,13.80
2018-05-15T15:46:33.790Z,12.37
2018-05-15T15:49:04.856Z,11.70
2018-05-15T15:51:34.554Z,12.07
2018-05-15T15:54:04.856Z,11.20
2018-05-15T15:56:34.602Z,10.97
2018-05-15T15:59:04.309Z,10.53
2018-05-15T16:01:33.994Z,10.00
2018-05-15T16:04:04.685Z,9.70
2018-05-15T16:06:35.194Z,11.30
2018-05-15T16:09:05.185Z,11.47
2018-05-15T16:11:35.088Z,11.23
2018-05-15T16:14:04.778Z,11.30
2018-05-15T16:16:34.515Z,10.27
2018-05-15T16:19:04.214Z,10.00
2018-05-15T16:21:33.901Z,9.60
2018-05-15T16:24:03.915Z,9.83
2018-05-15T16:26:34.444Z,10.20
2018-05-15T16:29:04.935Z,10.40
2018-05-15T16:31:34.882Z,9.20
2018-05-15T16:34:05.327Z,8.43
2018-05-15T16:36:35.152Z,8.33
2018-05-15T16:39:05.073Z,10.57
2018-05-15T16:41:35.382Z,9.70
2018-05-15T16:44:05.063Z,8.73
2018-05-15T16:46:35.586Z,8.17
2018-05-15T16:49:05.469Z,7.97
2018-05-15T16:51:35.218Z,9.60
2018-05-15T16:54:05.681Z,8.70
2018-05-15T16:56:35.444Z,8.20
2018-05-15T16:59:05.274Z,7.90
2018-05-15T17:01:35.807Z,8.33
2018-05-15T17:04:06.406Z,8.90
2018-05-15T17:06:36.140Z,8.10
2018-05-15T17:09:06.904Z,7.50
2018-05-15T17:11:36.624Z,7.40
2018-05-15T17:14:06.296Z,7.63
2018-05-15T17:16:36.820Z,8.57
2018-05-15T17:19:07.290Z,7.03
2018-05-15T17:21:37.017Z,7.20
2018-05-15T17:24:07.348Z,7.00
2018-05-15T17:26:37.103Z,8.03
2018-05-15T17:29:08.566Z,7.07
2018-05-15T17:31:38.331Z,7.00
2018-05-15T17:34:08.048Z,6.87
2018-05-15T17:36:37.739Z,7.10
2018-05-15T17:39:08.232Z,7.90
2018-05-15T17:41:38.219Z,6.30
2018-05-15T17:44:08.667Z,6.57
2018-05-15T17:46:39.712Z,6.23
2018-05-15T17:49:09.414Z,6.90
2018-05-15T17:51:39.176Z,6.97
2018-05-15T17:54:08.891Z,6.30
2018-05-15T17:56:38.588Z,6.20
2018-05-15T17:59:08.416Z,6.73
2018-05-15T18:01:38.220Z,6.00
2018-05-15T18:04:07.942Z,6.50
2018-05-15T18:06:38.508Z,6.50
2018-05-15T18:09:08.216Z,5.73
2018-05-15T18:11:37.990Z,6.00
2018-05-15T18:14:07.690Z,6.07
2018-05-15T18:16:37.744Z,6.20
2018-05-15T18:19:08.309Z,5.90
2018-05-15T18:21:38.081Z,5.87
2018-05-15T18:24:08.401Z,5.70
2018-05-15T18:26:38.945Z,5.97
2018-05-15T18:29:09.049Z,6.40
2018-05-15T18:31:39.596Z,5.43
2018-05-15T18:34:09.535Z,5.37
2018-05-15T18:36:39.272Z,6.13
2018-05-15T18:39:09.003Z,5.63
2018-05-15T18:41:39.666Z,5.67
2018-05-15T18:44:09.398Z,6.67
2018-05-15T18:46:40.235Z,5.47
2018-05-15T18:49:09.930Z,5.20
2018-05-15T18:51:39.681Z,6.57
2018-05-15T18:54:09.420Z,5.63
2018-05-15T18:56:39.962Z,5.60
2018-05-15T18:59:10.467Z,5.57
2018-05-15T19:01:40.277Z,5.77
2018-05-15T19:04:11.444Z,5.90
2018-05-15T19:06:42.008Z,5.50
2018-05-15T19:09:11.713Z,5.63
2018-05-15T19:11:41.402Z,6.57
2018-05-15T19:14:11.117Z,6.03
2018-05-15T19:16:41.277Z,5.07
2018-05-15T19:19:11.041Z,5.10
2018-05-15T19:21:41.957Z,5.63
2018-05-15T19:24:12.489Z,5.23
2018-05-15T19:26:43.026Z,5.33
2018-05-15T19:29:13.485Z,5.90
2018-05-15T19:31:43.438Z,5.20
2018-05-15T19:34:18.820Z,4.90
2018-05-15T19:36:53.432Z,4.93
2018-05-15T19:39:29.205Z,4.87
2018-05-15T19:41:59.077Z,5.03
2018-05-15T19:44:28.815Z,5.20
2018-05-15T19:46:59.686Z,5.30
2018-05-15T19:49:29.402Z,5.20
2018-05-15T19:51:59.834Z,5.07
2018-05-15T19:54:29.538Z,4.97
2018-05-15T19:56:59.306Z,4.80
2018-05-15T19:59:29.796Z,5.20
2018-05-15T20:01:59.583Z,5.50
2018-05-15T20:04:30.159Z,5.60
2018-05-15T20:07:00.685Z,5.47
2018-05-15T20:09:31.255Z,4.97
2018-05-15T20:12:01.068Z,4.63
2018-05-15T20:14:30.776Z,5.43
2018-05-15T20:17:00.483Z,5.17
2018-05-15T20:19:30.194Z,5.03
2018-05-15T20:22:00.316Z,4.70
2018-05-15T20:24:30.012Z,5.20
2018-05-15T20:26:59.780Z,5.70
2018-05-15T20:29:30.697Z,5.30
2018-05-15T20:32:00.429Z,5.37
2018-05-15T20:34:30.565Z,5.97
2018-05-15T20:37:00.302Z,5.90
2018-05-15T20:39:30.346Z,4.90
2018-05-15T20:42:00.086Z,5.97
2018-05-15T20:44:29.794Z,5.50
2018-05-15T20:46:59.488Z,5.30
2018-05-15T20:49:29.176Z,5.67
2018-05-15T20:51:58.891Z,5.23
2018-05-15T20:54:28.576Z,5.70
2018-05-15T20:56:58.759Z,5.10
2018-05-15T20:59:28.471Z,4.80
2018-05-15T21:01:58.200Z,5.53
2018-05-15T21:04:28.639Z,5.10
2018-05-15T21:06:59.113Z,4.80
2018-05-15T21:09:29.070Z,5.70
2018-05-15T21:11:59.537Z,6.10
2018-05-15T21:14:29.623Z,5.53
2018-05-15T21:17:00.098Z,5.60
2018-05-15T21:19:30.759Z,5.50
2018-05-15T21:22:00.595Z,5.00
2018-05-15T21:24:30.297Z,5.43
2018-05-15T21:27:01.977Z,5.90
2018-05-15T21:29:31.661Z,5.47
2018-05-15T21:32:02.148Z,5.90
2018-05-15T21:34:31.820Z,6.13
2018-05-15T21:37:01.524Z,5.33
2018-05-15T21:39:32.216Z,5.37
2018-05-15T21:42:01.931Z,5.43
2018-05-15T21:44:31.592Z,5.90
2018-05-15T21:47:01.253Z,4.93
2018-05-15T21:49:30.901Z,5.53
2018-05-15T21:52:00.797Z,5.87
2018-05-15T21:54:31.215Z,6.13
2018-05-15T21:57:02.570Z,5.70
2018-05-15T21:59:33.018Z,6.30
2018-05-15T22:02:03.074Z,6.20
2018-05-15T22:04:32.747Z,6.40
2018-05-15T22:07:02.415Z,6.00
2018-05-15T22:09:32.250Z,5.90
2018-05-15T22:12:13.741Z,6.40
2018-05-15T22:14:54.798Z,6.60
2018-05-15T22:17:36.263Z,6.10
2018-05-15T22:20:17.927Z,6.07
2018-05-15T22:22:47.351Z,5.70
2018-05-15T22:25:17.039Z,5.60
2018-05-15T22:27:47.849Z,5.77
2018-05-15T22:30:17.528Z,6.30
2018-05-15T22:32:48.071Z,5.93
2018-05-15T22:35:17.771Z,5.83
2018-05-15T22:37:48.245Z,6.40
2018-05-15T22:40:18.337Z,6.10
2018-05-15T22:42:48.066Z,6.57
2018-05-15T22:45:17.729Z,6.10
2018-05-15T22:47:48.220Z,6.23
2018-05-15T22:50:17.876Z,5.90
2018-05-15T22:52:48.363Z,6.00
2018-05-15T22:55:18.008Z,6.70
2018-05-15T22:57:48.894Z,6.97
2018-05-15T23:00:19.210Z,6.43
2018-05-15T23:02:48.914Z,6.40
2018-05-15T23:05:18.596Z,6.33
2018-05-15T23:07:50.072Z,7.00
2018-05-15T23:10:20.067Z,6.80
2018-05-15T23:12:49.770Z,6.50
2018-05-15T23:15:21.405Z,6.57
2018-05-15T23:17:51.136Z,6.70
2018-05-15T23:20:20.808Z,7.17
2018-05-15T23:22:50.479Z,7.17
2018-05-15T23:25:20.153Z,6.30
2018-05-15T23:27:50.654Z,7.13
2018-05-15T23:30:20.400Z,7.10
2018-05-15T23:32:50.132Z,6.47
2018-05-15T23:35:19.817Z,7.60
2018-05-15T23:37:50.382Z,7.07
2018-05-15T23:40:20.048Z,7.27
2018-05-15T23:42:50.575Z,7.53
2018-05-15T23:45:22.667Z,7.00
2018-05-15T23:47:52.427Z,7.97
2018-05-15T23:50:22.161Z,7.40
2018-05-15T23:52:52.684Z,7.40
2018-05-15T23:55:22.341Z,8.07
2018-05-15T23:57:53.425Z,7.57
